createdAt,value
2019-01-24T00:04:25.973Z,31.77
2019-01-24T00:09:29.495Z,28.70
2019-01-24T00:14:32.960Z,27.77
2019-01-24T00:19:36.459Z,26.80
2019-01-24T00:24:45.525Z,26.70
2019-01-24T00:29:49.084Z,25.77
2019-01-24T00:34:52.474Z,25.57
2019-01-24T00:39:59.005Z,23.83
2019-01-24T00:45:02.706Z,25.53
2019-01-24T00:50:07.688Z,25.23
2019-01-24T00:55:11.887Z,23.33
2019-01-24T01:00:37.345Z,22.37
2019-01-24T01:05:43.863Z,24.77
2019-01-24T01:10:48.618Z,20.77
2019-01-24T01:15:52.013Z,22.70
2019-01-24T01:21:02.264Z,22.23
2019-01-24T01:26:06.792Z,22.20
2019-01-24T01:31:10.178Z,22.73
2019-01-24T01:36:16.813Z,23.47
2019-01-24T01:41:20.066Z,22.20
2019-01-24T01:46:23.488Z,21.80
2019-01-24T01:51:27.103Z,21.70
2019-01-24T01:56:31.839Z,22.30
2019-01-24T02:01:38.230Z,21.10
2019-01-24T02:06:41.697Z,22.63
2019-01-24T02:11:45.095Z,22.73
2019-01-24T02:16:48.675Z,24.83
2019-01-24T02:21:55.259Z,23.50
2019-01-24T02:26:58.710Z,22.30
2019-01-24T02:32:05.128Z,22.90
2019-01-24T02:37:08.414Z,24.17
2019-01-24T02:42:11.879Z,22.90
2019-01-24T02:47:15.222Z,22.93
2019-01-24T02:52:18.560Z,22.27
2019-01-24T02:57:23.447Z,22.97
2019-01-24T03:02:26.792Z,21.47
2019-01-24T03:07:32.054Z,21.77
2019-01-24T03:12:38.503Z,19.60
2019-01-24T03:17:41.762Z,19.47
2019-01-24T03:22:45.635Z,19.90
2019-01-24T03:27:48.975Z,19.40
2019-01-24T03:32:55.597Z,21.50
2019-01-24T03:38:01.854Z,19.90
2019-01-24T03:43:05.070Z,19.83
2019-01-24T03:48:08.366Z,19.63
2019-01-24T03:53:11.949Z,19.73
2019-01-24T03:58:16.998Z,22.20
2019-01-24T04:03:21.846Z,19.40
2019-01-24T04:08:25.189Z,18.80
2019-01-24T04:13:28.524Z,21.43
2019-01-24T04:18:40.003Z,20.70
2019-01-24T04:23:43.583Z,20.23
2019-01-24T04:28:47.101Z,18.77
2019-01-24T04:33:53.415Z,19.80
2019-01-24T04:38:56.640Z,18.13
2019-01-24T04:44:00.104Z,20.83
2019-01-24T04:49:16.976Z,19.03
2019-01-24T04:54:20.369Z,18.60
2019-01-24T04:59:26.784Z,19.67
2019-01-24T05:04:31.366Z,19.63
2019-01-24T05:09:49.464Z,20.07
2019-01-24T05:14:52.770Z,21.03
2019-01-24T05:19:57.933Z,20.93
2019-01-24T05:25:02.962Z,19.40
2019-01-24T05:30:21.307Z,20.57
2019-01-24T05:35:25.135Z,19.50
2019-01-24T05:40:28.638Z,21.57
2019-01-24T05:45:32.162Z,18.90
2019-01-24T05:50:35.888Z,19.43
2019-01-24T05:55:39.129Z,18.63
2019-01-24T06:00:48.647Z,19.20
2019-01-24T06:05:52.023Z,20.60
2019-01-24T06:11:01.928Z,19.47
2019-01-24T06:16:05.385Z,19.97
2019-01-24T06:21:08.811Z,20.03
2019-01-24T06:26:12.374Z,20.40
2019-01-24T06:31:15.848Z,20.30
2019-01-24T06:36:19.352Z,18.93
2019-01-24T06:41:25.809Z,20.40
2019-01-24T06:46:29.289Z,18.30
2019-01-24T06:51:32.832Z,21.93
2019-01-24T06:56:40.107Z,22.07
2019-01-24T07:01:43.547Z,19.70
2019-01-24T07:06:46.887Z,20.30
2019-01-24T07:11:53.215Z,20.40
2019-01-24T07:16:56.485Z,18.80
2019-01-24T07:22:02.566Z,20.23
2019-01-24T07:27:05.964Z,20.87
2019-01-24T07:32:09.288Z,20.53
2019-01-24T07:37:12.593Z,20.53
2019-01-24T07:42:21.987Z,21.00
2019-01-24T07:47:25.500Z,20.03
2019-01-24T07:52:29.690Z,21.70
2019-01-24T07:57:33.002Z,20.83
2019-01-24T08:02:36.459Z,21.77
2019-01-24T08:07:39.818Z,21.63
2019-01-24T08:12:50.960Z,22.20
2019-01-24T08:17:54.581Z,23.10
2019-01-24T08:22:59.826Z,22.13
2019-01-24T08:28:03.043Z,23.07
2019-01-24T08:33:06.494Z,23.20
2019-01-24T08:38:09.927Z,20.37
2019-01-24T08:43:13.315Z,21.07
2019-01-24T08:48:16.674Z,22.03
2019-01-24T08:53:20.016Z,21.10
2019-01-24T08:58:23.620Z,22.37
2019-01-24T09:03:26.778Z,22.93
2019-01-24T09:08:29.643Z,22.00
2019-01-24T09:13:37.703Z,22.90
2019-01-24T09:18:47.033Z,20.73
2019-01-24T09:23:50.619Z,20.93
2019-01-24T09:28:54.052Z,21.60
2019-01-24T09:34:00.027Z,22.50
2019-01-24T09:39:04.892Z,21.50
2019-01-24T09:44:09.721Z,21.53
2019-01-24T09:49:16.042Z,22.53
2019-01-24T09:54:19.693Z,22.30
2019-01-24T09:59:30.277Z,21.10
2019-01-24T10:04:33.687Z,22.97
2019-01-24T10:09:37.236Z,23.77
2019-01-24T10:14:46.713Z,22.70
2019-01-24T10:19:50.026Z,22.53
2019-01-24T10:24:56.365Z,21.73
2019-01-24T10:29:59.614Z,23.37
2019-01-24T10:35:03.066Z,20.07
2019-01-24T10:40:12.297Z,22.60
2019-01-24T10:45:16.310Z,22.40
2019-01-24T10:50:21.135Z,21.10
2019-01-24T10:55:43.349Z,21.40
2019-01-24T11:00:46.865Z,22.20
2019-01-24T11:05:50.212Z,23.03
2019-01-24T11:10:56.558Z,21.50
2019-01-24T11:15:59.921Z,21.03
2019-01-24T11:21:03.663Z,23.63
2019-01-24T11:26:07.046Z,20.53
2019-01-24T11:31:10.622Z,21.27
2019-01-24T11:36:13.872Z,20.70
2019-01-24T11:41:17.444Z,22.20
2019-01-24T11:46:24.087Z,21.57
2019-01-24T11:51:27.493Z,22.63
2019-01-24T11:56:31.571Z,22.23
2019-01-24T12:01:35.090Z,21.93
2019-01-24T12:06:38.397Z,21.53
2019-01-24T12:11:44.398Z,22.77
2019-01-24T12:16:47.762Z,20.70
2019-01-24T12:21:51.300Z,23.00
2019-01-24T12:26:54.673Z,21.60
2019-01-24T12:31:58.075Z,24.07
2019-01-24T12:37:01.501Z,23.50
2019-01-24T12:42:10.787Z,21.20
2019-01-24T12:47:14.405Z,21.10
2019-01-24T12:52:18.023Z,22.00
2019-01-24T12:57:21.538Z,23.20
2019-01-24T13:02:25.087Z,22.70
2019-01-24T13:07:40.244Z,21.47
2019-01-24T13:12:43.626Z,21.10
2019-01-24T13:17:47.270Z,21.37
2019-01-24T13:22:50.839Z,20.23
2019-01-24T13:27:57.357Z,20.77
2019-01-24T13:33:04.629Z,19.67
2019-01-24T13:38:13.930Z,21.07
2019-01-24T13:43:17.441Z,22.23
2019-01-24T13:48:20.998Z,21.20
2019-01-24T13:53:24.471Z,20.87
2019-01-24T13:58:27.743Z,21.87
2019-01-24T14:03:42.331Z,20.83
2019-01-24T14:08:54.227Z,21.10
2019-01-24T14:14:00.836Z,20.67
2019-01-24T14:19:04.272Z,20.90
2019-01-24T14:24:10.948Z,22.83
2019-01-24T14:29:16.006Z,21.93
2019-01-24T14:34:19.453Z,22.13
2019-01-24T14:39:22.799Z,23.07
2019-01-24T14:44:26.246Z,21.47
2019-01-24T14:49:29.633Z,22.70
2019-01-24T14:54:33.173Z,22.37
2019-01-24T14:59:36.549Z,22.33
2019-01-24T15:04:42.960Z,23.90
2019-01-24T15:09:46.513Z,22.47
2019-01-24T15:15:10.707Z,23.50
2019-01-24T15:20:14.472Z,21.50
2019-01-24T15:25:17.857Z,23.30
2019-01-24T15:30:22.633Z,21.40
2019-01-24T15:35:26.159Z,21.07
2019-01-24T15:40:32.663Z,21.67
2019-01-24T15:45:35.691Z,22.60
2019-01-24T15:50:39.696Z,21.37
2019-01-24T15:55:45.603Z,23.50
2019-01-24T16:00:48.548Z,21.30
2019-01-24T16:05:51.478Z,22.63
2019-01-24T16:10:54.783Z,21.10
2019-01-24T16:15:58.639Z,21.40
2019-01-24T16:21:04.786Z,22.37
2019-01-24T16:26:07.636Z,24.20
2019-01-24T16:31:10.594Z,21.23
2019-01-24T16:36:23.114Z,20.47
2019-01-24T16:41:26.529Z,21.50
2019-01-24T16:46:30.350Z,22.03
2019-01-24T16:51:34.315Z,22.17
2019-01-24T16:56:38.820Z,23.77
2019-01-24T17:01:42.171Z,21.00
2019-01-24T17:06:45.582Z,21.00
2019-01-24T17:11:48.870Z,22.13
2019-01-24T17:16:52.113Z,21.90
2019-01-24T17:21:59.396Z,23.00
2019-01-24T17:27:02.294Z,22.03
2019-01-24T17:32:05.804Z,19.77
2019-01-24T17:37:10.860Z,21.47
2019-01-24T17:42:14.372Z,20.20
2019-01-24T17:47:38.420Z,18.17
2019-01-24T17:52:43.381Z,19.87
2019-01-24T17:57:46.790Z,20.23
2019-01-24T18:02:56.620Z,21.20
2019-01-24T18:08:03.144Z,19.67
2019-01-24T18:13:07.171Z,19.90
2019-01-24T18:18:12.910Z,19.23
2019-01-24T18:23:25.358Z,20.03
2019-01-24T18:28:28.262Z,19.13
2019-01-24T18:33:31.173Z,21.67
2019-01-24T18:38:38.444Z,20.07
2019-01-24T18:43:39.067Z,18.10
2019-01-24T18:48:42.625Z,20.27
2019-01-24T18:53:47.017Z,19.97
2019-01-24T18:58:49.878Z,21.00
2019-01-24T19:03:52.714Z,20.17
2019-01-24T19:08:56.175Z,20.93
2019-01-24T19:14:08.598Z,21.27
2019-01-24T19:19:11.857Z,20.63
2019-01-24T19:24:18.393Z,20.80
2019-01-24T19:29:22.791Z,20.53
2019-01-24T19:34:26.347Z,20.33
2019-01-24T19:39:29.709Z,19.57
2019-01-24T19:44:33.751Z,20.17
2019-01-24T19:49:40.025Z,22.47
2019-01-24T19:54:46.109Z,20.37
2019-01-24T19:59:49.602Z,23.20
2019-01-24T20:04:58.803Z,21.37
2019-01-24T20:10:02.214Z,19.67
2019-01-24T20:15:13.678Z,20.03
2019-01-24T20:20:17.136Z,19.10
2019-01-24T20:25:22.392Z,20.73
2019-01-24T20:30:27.126Z,20.03
2019-01-24T20:35:45.296Z,20.30
2019-01-24T20:40:48.945Z,20.20
2019-01-24T20:45:52.301Z,20.50
2019-01-24T20:50:55.701Z,19.40
2019-01-24T20:55:58.985Z,20.67
2019-01-24T21:01:02.458Z,19.87
2019-01-24T21:06:09.046Z,19.47
2019-01-24T21:11:15.326Z,20.03
2019-01-24T21:16:18.848Z,20.63
2019-01-24T21:21:23.952Z,19.13
2019-01-24T21:26:30.038Z,19.63
2019-01-24T21:31:33.898Z,20.30
2019-01-24T21:36:38.335Z,18.20
2019-01-24T21:41:46.456Z,18.60
2019-01-24T21:46:49.741Z,18.90
2019-01-24T21:52:04.765Z,17.93
2019-01-24T21:57:08.272Z,19.70
2019-01-24T22:02:11.609Z,20.67
2019-01-24T22:07:14.881Z,20.10
2019-01-24T22:12:18.234Z,19.33
2019-01-24T22:17:21.701Z,18.50
2019-01-24T22:22:25.002Z,18.80
2019-01-24T22:27:28.303Z,18.50
2019-01-24T22:32:31.945Z,19.77
2019-01-24T22:37:38.619Z,17.53
2019-01-24T22:42:43.119Z,17.70
2019-01-24T22:47:46.679Z,16.70
2019-01-24T22:52:49.980Z,18.00
2019-01-24T22:57:53.413Z,17.57
2019-01-24T23:03:01.742Z,16.87
2019-01-24T23:08:05.127Z,17.73
2019-01-24T23:13:09.695Z,19.40
2019-01-24T23:18:16.293Z,18.27
2019-01-24T23:23:19.589Z,17.70
2019-01-24T23:28:22.881Z,17.97
2019-01-24T23:33:26.311Z,18.30
2019-01-24T23:38:29.724Z,18.83
2019-01-24T23:43:33.052Z,18.47
2019-01-24T23:48:36.554Z,18.43
2019-01-24T23:53:40.025Z,17.50
2019-01-24T23:58:49.057Z,18.00
